Time;durP1;ratioP1;P1;durP2;ratioP2;P2;SDS_P1;SDS_P2;PMS_P1;PMS_P2;Temp;Humidity;BMP_temperature;BMP_pressure;BME280_temperature;BME280_humidity;BME280_pressure;Samples;Min_cycle;Max_cycle;Signal;HPM_P1;HPM_P2
2022/05/06 00:01:32;;;;;;;10.00;7.62;;;;;;;16.04;62.53;100340.28;4433721;32;33480;-87
2022/05/06 00:04:05;;;;;;;9.98;8.02;;;;;;;15.54;64.29;100336.91;4430601;32;33079;-87
2022/05/06 00:06:33;;;;;;;12.18;8.23;;;;;;;15.94;62.96;100339.97;4432081;32;32832;-88
2022/05/06 00:09:01;;;;;;;11.63;8.30;;;;;;;14.98;66.64;100349.78;4418775;32;33988;-87
2022/05/06 00:11:32;;;;;;;10.68;8.48;;;;;;;15.12;66.43;100337.22;4424677;32;34280;-90
2022/05/06 00:14:04;;;;;;;10.73;8.63;;;;;;;14.78;67.80;100340.38;4425511;32;33595;-88
2022/05/06 00:16:32;;;;;;;11.07;8.63;;;;;;;14.67;68.31;100338.22;4433254;32;33057;-87
2022/05/06 00:19:00;;;;;;;18.23;9.68;;;;;;;14.32;69.94;100349.91;4426400;32;33792;-87
2022/05/06 00:21:30;;;;;;;10.38;8.98;;;;;;;14.95;67.70;100334.03;4434384;32;34391;-89
2022/05/06 00:24:05;;;;;;;11.18;9.02;;;;;;;15.63;64.66;100331.13;4429916;32;32984;-88
2022/05/06 00:26:41;;;;;;;14.57;9.15;;;;;;;15.74;63.86;100340.19;4401977;32;36505;-90
2022/05/06 00:29:13;;;;;;;13.20;8.77;;;;;;;15.80;64.03;100349.94;4405043;32;33957;-89
2022/05/06 00:31:40;;;;;;;11.55;7.37;;;;;;;15.43;65.88;100338.25;4414661;32;34578;-88
2022/05/06 00:34:11;;;;;;;10.43;7.82;;;;;;;16.37;62.32;100343.91;4432805;32;33894;-89
2022/05/06 00:36:40;;;;;;;12.27;8.02;;;;;;;15.21;66.20;100341.87;4429925;32;34139;-89
2022/05/06 00:39:08;;;;;;;10.82;8.05;;;;;;;15.42;65.48;100347.81;4429818;32;33913;-89
2022/05/06 00:41:35;;;;;;;10.85;8.35;;;;;;;14.73;68.82;100340.16;4435873;32;33910;-90
2022/05/06 00:44:08;;;;;;;10.57;8.43;;;;;;;14.04;71.47;100345.34;4435064;32;34539;-90
2022/05/06 00:46:37;;;;;;;12.75;8.73;;;;;;;14.36;70.81;100347.47;4422324;32;33162;-88
2022/05/06 00:49:14;;;;;;;10.63;8.07;;;;;;;14.72;69.90;100352.34;4419204;32;34065;-88
2022/05/06 00:51:42;;;;;;;10.02;7.47;;;;;;;15.51;66.99;100340.31;4428606;32;33944;-87
2022/05/06 00:54:10;;;;;;;9.65;7.47;;;;;;;16.38;63.42;100329.97;4434310;32;33938;-88
2022/05/06 00:56:38;;;;;;;10.85;7.62;;;;;;;16.17;63.01;100341.56;4416373;32;33217;-88
2022/05/06 00:59:06;;;;;;;10.25;6.82;;;;;;;16.18;62.89;100343.31;4423832;32;32047;-89
2022/05/06 01:01:35;;;;;;;9.60;7.25;;;;;;;16.82;61.04;100346.97;4425724;32;33515;-88
2022/05/06 01:04:17;;;;;;;8.88;6.28;;;;;;;16.50;61.24;100348.66;4431839;32;33791;-88
2022/05/06 01:06:45;;;;;;;12.45;6.50;;;;;;;16.44;60.93;100351.09;4433581;32;33206;-90
2022/05/06 01:09:18;;;;;;;11.05;7.80;;;;;;;15.89;61.88;100348.53;4435088;32;33967;-88
2022/05/06 01:11:46;;;;;;;12.00;8.25;;;;;;;13.57;72.70;100361.69;4423774;32;33997;-87
2022/05/06 01:14:31;;;;;;;12.63;8.63;;;;;;;15.02;68.58;100356.88;4436888;32;33874;-89
2022/05/06 01:16:59;;;;;;;10.90;8.27;;;;;;;15.35;67.08;100356.28;4411083;32;32414;-88
2022/05/06 01:19:27;;;;;;;11.10;7.95;;;;;;;15.79;65.45;100359.53;4423755;32;33429;-88
2022/05/06 01:21:55;;;;;;;10.38;7.47;;;;;;;14.58;71.30;100363.06;4408925;32;34183;-87
2022/05/06 01:24:26;;;;;;;11.40;7.37;;;;;;;15.58;67.67;100343.13;4420163;32;33173;-87
2022/05/06 01:27:03;;;;;;;9.77;7.15;;;;;;;15.94;65.53;100345.19;4423331;32;33463;-89
2022/05/06 01:29:32;;;;;;;9.10;7.03;;;;;;;16.10;64.13;100347.44;4427383;32;33821;-88
2022/05/06 01:32:00;;;;;;;9.80;6.37;;;;;;;16.12;63.50;100353.59;4421602;32;34363;-89
2022/05/06 01:34:32;;;;;;;12.73;8.10;;;;;;;16.09;63.54;100348.28;4420291;32;34348;-87
2022/05/06 01:37:02;;;;;;;11.27;7.72;;;;;;;15.88;64.81;100354.59;4419932;32;33070;-87
2022/05/06 01:39:35;;;;;;;12.82;8.68;;;;;;;15.91;65.92;100353.81;4423204;32;34706;-89
2022/05/06 01:42:12;;;;;;;10.88;8.20;;;;;;;16.11;64.32;100352.72;4418467;32;33550;-89
2022/05/06 01:44:43;;;;;;;11.52;8.48;;;;;;;15.86;64.91;100348.44;4430439;32;31918;-89
2022/05/06 01:47:16;;;;;;;10.32;8.43;;;;;;;15.34;67.51;100339.72;4422104;32;33913;-89
2022/05/06 01:49:46;;;;;;;12.27;8.30;;;;;;;16.20;64.14;100338.16;4418763;32;33841;-88
2022/05/06 01:52:17;;;;;;;11.35;7.87;;;;;;;16.39;62.97;100339.59;4422380;32;34132;-88
2022/05/06 01:54:46;;;;;;;10.82;8.38;;;;;;;16.35;62.81;100340.34;4427528;32;33656;-87
2022/05/06 01:57:15;;;;;;;10.35;8.63;;;;;;;16.26;63.00;100344.47;4418063;32;34011;-88
2022/05/06 01:59:42;;;;;;;10.48;8.48;;;;;;;16.16;63.33;100339.78;4432419;32;33840;-88
2022/05/06 02:02:10;;;;;;;12.45;8.82;;;;;;;16.26;63.03;100335.72;4432314;32;32313;-89
2022/05/06 02:07:25;;;;;;;14.77;8.30;;;;;;;16.18;62.67;100337.22;4441459;26;34252;-64
2022/05/06 02:09:53;;;;;;;11.57;8.05;;;;;;;16.22;62.05;100333.84;4454156;32;34500;-64
2022/05/06 02:12:22;;;;;;;11.30;8.40;;;;;;;16.07;62.75;100323.81;4444155;32;34140;-63
2022/05/06 02:14:50;;;;;;;13.95;8.20;;;;;;;16.31;61.54;100332.41;4453151;32;34594;-64
2022/05/06 02:17:18;;;;;;;10.23;7.65;;;;;;;16.00;62.04;100337.56;4455645;32;34021;-64
2022/05/06 02:19:47;;;;;;;10.38;7.55;;;;;;;16.20;60.90;100339.03;4459567;32;33991;-64
2022/05/06 02:22:15;;;;;;;9.77;7.25;;;;;;;16.15;61.63;100343.25;4456234;32;34788;-64
2022/05/06 02:24:43;;;;;;;10.90;8.23;;;;;;;16.34;60.94;100343.78;4459668;32;34348;-64
2022/05/06 02:27:12;;;;;;;11.07;8.00;;;;;;;16.49;60.70;100336.41;4456309;32;33290;-64
2022/05/06 02:33:12;;;;;;;10.32;7.12;;;;;;;16.84;59.62;100331.31;4456264;32;34498;-63
2022/05/06 02:35:18;;;;;;;10.35;7.30;;;;;;;16.65;60.14;100325.56;4450608;32;33929;-64
2022/05/06 02:37:46;;;;;;;12.07;7.68;;;;;;;16.46;60.45;100333.72;4462473;32;34439;-64
2022/05/06 02:40:16;;;;;;;11.30;8.45;;;;;;;16.35;60.51;100335.13;4456179;32;34684;-64
2022/05/06 02:42:44;;;;;;;11.02;7.72;;;;;;;16.48;59.59;100335.53;4453657;32;33544;-64
2022/05/06 02:45:11;;;;;;;10.45;7.60;;;;;;;16.70;59.23;100342.25;4436140;32;33876;-63
2022/05/06 02:47:39;;;;;;;8.68;6.87;;;;;;;16.63;58.73;100342.94;4458127;32;33449;-64
2022/05/06 02:50:07;;;;;;;11.45;7.65;;;;;;;16.86;58.63;100345.34;4456198;32;33987;-64
2022/05/06 02:52:35;;;;;;;9.07;7.43;;;;;;;16.90;58.46;100336.72;4449584;32;33771;-64
2022/05/06 02:55:04;;;;;;;10.13;7.45;;;;;;;17.13;57.85;100337.34;4452899;32;34620;-64
2022/05/06 02:57:31;;;;;;;8.88;7.20;;;;;;;17.41;57.17;100335.47;4456583;32;33471;-63
2022/05/06 02:59:59;;;;;;;9.88;7.50;;;;;;;17.04;58.33;100329.28;4459378;32;34591;-64
2022/05/06 03:02:27;;;;;;;9.57;7.60;;;;;;;17.55;56.83;100333.19;4457426;32;33905;-64
2022/05/06 03:04:55;;;;;;;9.88;6.93;;;;;;;17.27;57.55;100332.50;4454395;32;33623;-64
2022/05/06 03:07:24;;;;;;;9.45;7.60;;;;;;;17.23;57.47;100328.00;4454533;32;33249;-64
2022/05/06 03:09:52;;;;;;;12.23;6.90;;;;;;;17.08;57.77;100325.91;4455181;32;33666;-63
2022/05/06 03:12:29;;;;;;;11.43;7.60;;;;;;;16.91;58.47;100322.81;4459318;32;33606;-64
2022/05/06 03:15:04;;;;;;;11.63;7.65;;;;;;;16.79;58.59;100323.31;4457780;32;33609;-64
2022/05/06 03:17:32;;;;;;;10.07;7.28;;;;;;;17.04;57.86;100330.16;4455526;32;33440;-64
2022/05/06 03:20:01;;;;;;;9.50;7.68;;;;;;;17.18;57.55;100332.25;4461225;32;33291;-64
2022/05/06 03:22:29;;;;;;;13.13;7.57;;;;;;;17.10;57.96;100330.31;4457948;32;33750;-64
2022/05/06 03:24:56;;;;;;;10.82;7.65;;;;;;;17.41;56.83;100325.88;4441043;32;34341;-64
2022/05/06 03:30:10;;;;;;;10.60;7.53;;;;;;;17.18;57.28;100332.25;4455629;32;33876;-64
2022/05/06 03:32:39;;;;;;;10.68;8.00;;;;;;;17.17;57.63;100340.94;4435267;32;33910;-63
2022/05/06 03:35:07;;;;;;;11.25;8.02;;;;;;;17.48;56.64;100335.69;4439471;32;34543;-64
2022/05/06 03:37:38;;;;;;;14.00;8.20;;;;;;;17.47;56.72;100341.75;4442259;32;33432;-64
2022/05/06 03:40:06;;;;;;;12.60;8.02;;;;;;;17.41;56.84;100344.22;4458255;32;33887;-64
2022/05/06 03:42:34;;;;;;;10.45;7.30;;;;;;;17.33;57.08;100344.88;4458248;32;34585;-64
2022/05/06 03:45:03;;;;;;;12.00;7.55;;;;;;;17.36;56.94;100337.97;4456478;32;34151;-64
2022/05/06 03:47:31;;;;;;;11.55;8.13;;;;;;;17.55;56.33;100338.44;4465065;32;34373;-64
2022/05/06 03:52:47;;;;;;;11.30;7.78;;;;;;;16.87;59.30;100339.28;4453617;32;33741;-64
2022/05/06 03:55:15;;;;;;;12.50;8.57;;;;;;;16.87;59.14;100339.28;4456794;32;34574;-64
2022/05/06 03:57:42;;;;;;;11.05;8.27;;;;;;;16.70;59.99;100339.63;4442084;32;33101;-64
2022/05/06 04:00:12;;;;;;;10.90;8.20;;;;;;;16.99;59.15;100351.81;4457484;32;33715;-64
2022/05/06 04:02:43;;;;;;;10.45;7.78;;;;;;;16.83;59.82;100354.00;4455122;32;34185;-64
2022/05/06 04:05:12;;;;;;;9.60;7.75;;;;;;;16.57;60.57;100349.72;4452113;32;34921;-64
2022/05/06 04:07:40;;;;;;;11.43;7.72;;;;;;;16.92;59.43;100350.78;4460657;32;34044;-63
2022/05/06 04:10:08;;;;;;;11.00;7.68;;;;;;;16.80;60.02;100356.47;4460206;32;34148;-64
2022/05/06 04:12:36;;;;;;;10.05;7.60;;;;;;;16.90;59.60;100355.03;4464280;32;34028;-64
2022/05/06 04:15:06;;;;;;;11.35;7.68;;;;;;;16.67;59.66;100346.53;4443024;32;34278;-64
2022/05/06 04:17:34;;;;;;;8.90;7.00;;;;;;;16.72;59.61;100352.78;4461992;32;33173;-64
2022/05/06 04:25:36;;;;;;;10.43;7.47;;;;;;;16.59;59.08;100367.25;4454585;32;33404;-64
2022/05/06 04:28:04;;;;;;;10.90;7.20;;;;;;;17.06;58.13;100375.56;4441585;32;33044;-64
2022/05/06 04:30:32;;;;;;;9.00;7.12;;;;;;;17.03;58.51;100374.59;4451552;32;34726;-65
2022/05/06 04:33:00;;;;;;;8.75;6.95;;;;;;;16.97;58.42;100379.66;4448152;32;34514;-64
2022/05/06 04:35:27;;;;;;;11.10;6.97;;;;;;;16.88;58.70;100380.28;4450894;32;34021;-64
2022/05/06 04:37:55;;;;;;;11.55;7.07;;;;;;;16.88;58.99;100386.44;4448659;32;33541;-64
2022/05/06 04:40:23;;;;;;;9.40;7.25;;;;;;;16.89;59.14;100376.84;4450318;32;34654;-64
2022/05/06 04:42:51;;;;;;;9.18;7.30;;;;;;;17.10;58.67;100379.16;4453618;32;33748;-64
2022/05/06 04:45:19;;;;;;;10.73;6.97;;;;;;;17.13;58.28;100380.97;4455076;32;34595;-64
2022/05/06 04:47:47;;;;;;;10.05;7.00;;;;;;;16.94;59.06;100385.72;4450561;32;33423;-65
2022/05/06 04:50:17;;;;;;;9.82;7.00;;;;;;;17.06;59.03;100391.28;4439033;32;33960;-64
2022/05/06 04:52:44;;;;;;;10.88;7.45;;;;;;;17.28;58.41;100390.13;4437907;32;32590;-65
2022/05/06 04:55:16;;;;;;;8.82;6.55;;;;;;;17.20;58.80;100393.41;4431888;32;34582;-64
2022/05/06 04:57:44;;;;;;;10.23;7.25;;;;;;;17.23;58.14;100394.38;4455007;32;33578;-64
2022/05/06 05:00:12;;;;;;;10.20;7.60;;;;;;;17.30;58.51;100401.53;4439379;32;32385;-64
2022/05/06 05:02:43;;;;;;;9.88;7.07;;;;;;;17.42;58.27;100397.47;4445649;32;34690;-64
2022/05/06 05:05:11;;;;;;;10.70;7.65;;;;;;;17.53;57.86;100403.00;4437661;32;34097;-64
2022/05/06 05:07:40;;;;;;;11.77;7.62;;;;;;;17.70;57.00;100399.09;4448891;32;33110;-64
2022/05/06 05:10:10;;;;;;;10.50;6.80;;;;;;;17.38;57.90;100404.34;4439163;32;32824;-63
2022/05/06 05:12:38;;;;;;;12.52;7.35;;;;;;;17.58;58.04;100398.78;4443130;32;34821;-64
2022/05/06 05:15:06;;;;;;;9.02;7.28;;;;;;;17.59;57.64;100395.28;4452025;32;32671;-65
2022/05/06 05:17:36;;;;;;;12.73;6.43;;;;;;;17.46;57.74;100392.38;4451865;32;33222;-64
2022/05/06 05:20:04;;;;;;;11.02;6.97;;;;;;;17.63;57.75;100389.28;4452561;32;33790;-64
2022/05/06 05:22:34;;;;;;;10.05;6.82;;;;;;;17.71;57.22;100392.97;4446068;32;34667;-63
2022/05/06 05:25:04;;;;;;;12.30;6.90;;;;;;;18.01;56.49;100399.87;4449307;32;33568;-63
2022/05/06 05:27:32;;;;;;;10.18;7.32;;;;;;;17.74;57.13;100398.31;4448186;32;33731;-64
2022/05/06 05:30:01;;;;;;;11.57;7.00;;;;;;;18.11;56.06;100396.63;4454659;32;33702;-64
2022/05/06 05:32:32;;;;;;;10.38;6.55;;;;;;;17.87;56.43;100395.19;4428031;32;33587;-64
2022/05/06 05:35:01;;;;;;;12.32;7.53;;;;;;;17.93;56.49;100394.44;4448080;32;33912;-64
2022/05/06 05:37:31;;;;;;;11.52;7.15;;;;;;;17.93;56.50;100393.56;4455062;32;33267;-65
2022/05/06 05:39:58;;;;;;;8.63;6.50;;;;;;;18.01;56.25;100392.00;4453744;32;33970;-64
2022/05/06 05:42:27;;;;;;;12.73;7.03;;;;;;;18.56;54.95;100401.16;4458735;32;33951;-64
2022/05/06 05:50:29;;;;;;;13.07;7.35;;;;;;;18.50;54.69;100408.88;4434374;32;33324;-64
2022/05/06 05:52:58;;;;;;;11.88;7.53;;;;;;;18.52;54.51;100412.41;4422884;32;33962;-64
2022/05/06 05:55:26;;;;;;;10.60;6.68;;;;;;;18.40;54.89;100412.16;4447570;32;34150;-64
2022/05/06 05:57:55;;;;;;;10.18;7.47;;;;;;;18.55;54.54;100417.72;4452187;32;33741;-65
2022/05/06 06:00:23;;;;;;;9.90;7.30;;;;;;;18.85;53.84;100421.91;4438381;32;33953;-65
2022/05/06 06:02:51;;;;;;;11.57;7.03;;;;;;;19.12;53.12;100418.94;4439285;32;33149;-63
2022/05/06 06:05:19;;;;;;;11.82;7.65;;;;;;;18.74;53.76;100412.91;4451486;32;34589;-64
2022/05/06 06:07:47;;;;;;;9.25;6.82;;;;;;;19.19;53.15;100418.22;4439555;32;32604;-65
2022/05/06 06:10:14;;;;;;;11.52;7.30;;;;;;;18.90;53.60;100420.25;4458398;32;33806;-65
2022/05/06 06:12:42;;;;;;;8.88;6.55;;;;;;;19.24;52.71;100427.09;4440650;32;32255;-65
2022/05/06 06:15:10;;;;;;;10.32;7.30;;;;;;;18.99;53.26;100425.72;4455621;32;34576;-63
2022/05/06 06:17:38;;;;;;;13.18;7.12;;;;;;;18.83;53.76;100428.84;4462551;32;34213;-65
2022/05/06 06:20:07;;;;;;;11.52;6.82;;;;;;;19.02;53.05;100424.88;4453838;32;33971;-63
2022/05/06 06:22:36;;;;;;;9.90;7.15;;;;;;;18.50;54.73;100429.84;4450363;32;33904;-64
2022/05/06 06:25:05;;;;;;;13.62;7.03;;;;;;;18.63;54.23;100431.91;4452355;32;34450;-64
2022/05/06 06:27:34;;;;;;;10.20;6.72;;;;;;;18.67;54.46;100425.88;4451217;32;33531;-64
2022/05/06 06:30:03;;;;;;;9.82;7.75;;;;;;;18.72;54.00;100435.59;4442977;32;33856;-64
2022/05/06 06:32:32;;;;;;;10.88;7.20;;;;;;;18.77;54.35;100433.94;4431752;32;32170;-63
2022/05/06 06:35:01;;;;;;;14.90;7.60;;;;;;;18.70;54.31;100434.66;4451352;32;34805;-63
2022/05/06 06:37:31;;;;;;;12.57;7.43;;;;;;;18.82;54.18;100438.47;4431990;32;33232;-64
2022/05/06 06:39:59;;;;;;;9.32;7.10;;;;;;;18.50;54.94;100435.09;4451750;32;32444;-64
2022/05/06 06:42:27;;;;;;;13.45;8.20;;;;;;;18.95;53.75;100434.38;4452478;32;32103;-64
2022/05/06 06:44:55;;;;;;;9.35;7.07;;;;;;;18.84;54.38;100435.88;4453395;32;33893;-64
2022/05/06 06:47:23;;;;;;;9.80;6.97;;;;;;;18.75;54.39;100430.41;4437932;32;34165;-63
2022/05/06 06:49:50;;;;;;;9.52;7.53;;;;;;;18.53;55.10;100440.44;4446526;32;33932;-64
2022/05/06 06:52:24;;;;;;;13.35;7.53;;;;;;;18.88;54.17;100431.59;4454133;32;33554;-65
2022/05/06 06:54:52;;;;;;;11.88;7.03;;;;;;;19.20;53.36;100434.84;4464348;32;33833;-64
2022/05/06 06:57:20;;;;;;;13.15;8.10;;;;;;;19.19;53.35;100433.97;4437678;32;33494;-65
2022/05/06 06:59:47;;;;;;;10.05;7.12;;;;;;;18.88;54.55;100442.09;4446502;32;33884;-65
2022/05/06 07:02:16;;;;;;;10.90;7.37;;;;;;;19.07;54.06;100422.38;4430675;32;33877;-65
2022/05/06 07:04:43;;;;;;;15.00;8.82;;;;;;;18.81;54.37;100427.94;4448855;32;34115;-65
2022/05/06 07:12:51;;;;;;;12.93;8.32;;;;;;;18.83;54.33;100432.38;4434285;32;33730;-64
2022/05/06 07:15:19;;;;;;;12.80;7.60;;;;;;;19.09;53.33;100432.03;4450140;32;34186;-64
2022/05/06 07:17:47;;;;;;;11.98;7.70;;;;;;;19.38;53.04;100423.84;4454090;32;33838;-64
2022/05/06 07:20:15;;;;;;;14.95;8.30;;;;;;;19.74;52.50;100422.75;4449876;32;33936;-65
2022/05/06 07:22:43;;;;;;;11.05;7.78;;;;;;;19.27;53.22;100421.00;4451097;32;33820;-64
2022/05/06 07:25:16;;;;;;;12.23;8.00;;;;;;;19.69;52.10;100433.16;4451564;32;33787;-64
2022/05/06 07:27:43;;;;;;;10.27;8.00;;;;;;;19.59;52.37;100428.62;4449655;32;33535;-64
2022/05/06 07:30:12;;;;;;;9.05;7.43;;;;;;;19.75;51.86;100425.41;4447170;32;33884;-63
2022/05/06 07:32:40;;;;;;;15.15;7.65;;;;;;;19.82;51.49;100422.03;4446605;32;34392;-63
2022/05/06 07:35:08;;;;;;;11.57;7.62;;;;;;;20.01;51.52;100423.25;4431778;32;33844;-64
2022/05/06 07:37:35;;;;;;;10.82;7.62;;;;;;;20.07;50.61;100425.09;4448319;32;33892;-65
2022/05/06 07:40:04;;;;;;;13.93;7.85;;;;;;;20.40;50.02;100423.84;4447525;32;33963;-65
2022/05/06 07:42:32;;;;;;;11.63;7.15;;;;;;;20.54;50.17;100430.16;4452669;32;35146;-67
2022/05/06 07:45:00;;;;;;;11.20;7.50;;;;;;;20.38;50.26;100436.09;4449788;32;34319;-63
2022/05/06 07:47:27;;;;;;;13.50;7.62;;;;;;;20.45;49.95;100431.78;4447610;32;34317;-63
2022/05/06 07:50:15;;;;;;;9.60;7.97;;;;;;;20.25;50.19;100436.75;4446803;32;33520;-63
2022/05/06 07:52:43;;;;;;;10.70;6.32;;;;;;;20.59;49.46;100439.06;4450524;32;34530;-62
2022/05/06 07:55:15;;;;;;;13.45;7.50;;;;;;;20.37;50.34;100439.56;4446846;32;34845;-62
2022/05/06 07:57:42;;;;;;;11.05;7.30;;;;;;;20.75;49.56;100434.00;4447651;32;34364;-63
2022/05/06 08:00:10;;;;;;;11.65;7.35;;;;;;;20.83;50.06;100432.34;4455681;32;33698;-62
2022/05/06 08:05:27;;;;;;;15.23;8.73;;;;;;;20.93;49.86;100428.09;4447984;32;33737;-62
2022/05/06 08:07:55;;;;;;;16.70;9.57;;;;;;;20.93;49.77;100434.22;4451485;32;33123;-63
2022/05/06 08:10:23;;;;;;;12.57;8.25;;;;;;;20.81;49.48;100439.34;4439732;32;34401;-63
2022/05/06 08:12:50;;;;;;;12.68;7.50;;;;;;;20.97;49.05;100436.03;4451222;32;33898;-62
2022/05/06 08:15:18;;;;;;;13.10;7.37;;;;;;;21.16;48.92;100434.50;4447452;32;34336;-63
2022/05/06 08:17:46;;;;;;;11.88;7.80;;;;;;;21.30;49.75;100429.41;4440470;32;31850;-63
2022/05/06 08:20:15;;;;;;;14.40;7.57;;;;;;;21.43;49.11;100429.53;4437987;32;34641;-63
2022/05/06 08:22:43;;;;;;;13.13;7.62;;;;;;;21.60;48.89;100428.00;4453109;32;33650;-63
2022/05/06 08:25:11;;;;;;;14.25;8.05;;;;;;;21.26;49.29;100430.22;4450699;32;33889;-65
2022/05/06 08:27:57;;;;;;;13.98;8.95;;;;;;;21.64;47.85;100431.56;4439179;32;33718;-62
2022/05/06 08:30:24;;;;;;;13.18;8.52;;;;;;;21.57;48.09;100423.56;4452941;32;34441;-63
2022/05/06 08:32:52;;;;;;;10.32;7.95;;;;;;;21.59;47.12;100426.22;4452327;32;33716;-62
2022/05/06 08:35:20;;;;;;;12.73;8.50;;;;;;;21.76;47.30;100426.38;4451255;32;33633;-63
2022/05/06 08:37:48;;;;;;;12.73;7.82;;;;;;;21.57;47.71;100427.97;4450821;32;33931;-63
2022/05/06 08:40:17;;;;;;;10.63;8.25;;;;;;;21.68;47.56;100431.59;4461096;32;33450;-63
2022/05/06 08:42:46;;;;;;;12.32;7.85;;;;;;;21.33;48.05;100426.81;4437007;32;34345;-62
2022/05/06 08:50:53;;;;;;;12.90;8.30;;;;;;;22.17;46.06;100431.13;4450610;32;33993;-64
2022/05/06 08:53:29;;;;;;;;;;;;;;;21.86;46.78;100430.00;4457038;32;33846;-64
2022/05/06 08:55:58;;;;;;;21.52;10.30;;;;;;;22.15;46.52;100433.72;4448990;32;33944;-64
2022/05/06 08:58:27;;;;;;;14.40;8.23;;;;;;;22.70;45.25;100433.25;4447862;32;33198;-62
2022/05/06 09:01:13;;;;;;;11.10;7.50;;;;;;;22.91;45.55;100427.19;4449943;32;32709;-63
2022/05/06 09:03:44;;;;;;;9.98;7.37;;;;;;;23.06;45.28;100422.88;4457340;32;33441;-63
2022/05/06 09:06:23;;;;;;;12.40;7.22;;;;;;;23.13;44.82;100429.97;4449867;32;33916;-63
2022/05/06 09:08:53;;;;;;;9.63;7.30;;;;;;;23.49;44.63;100425.66;4454844;32;33253;-63
2022/05/06 09:14:14;;;;;;;12.93;7.75;;;;;;;23.35;44.43;100431.78;4458547;32;33804;-63
2022/05/06 09:16:44;;;;;;;10.52;7.70;;;;;;;23.45;44.19;100429.16;4449559;32;33676;-63
2022/05/06 09:19:27;;;;;;;11.68;7.15;;;;;;;23.38;43.70;100427.37;4449127;32;33386;-63
2022/05/06 09:22:17;;;;;;;10.75;7.28;;;;;;;23.55;44.19;100425.66;4445934;32;34759;-64
2022/05/06 09:24:50;;;;;;;11.05;7.50;;;;;;;23.59;43.59;100422.12;4451767;32;33627;-63
2022/05/06 09:27:18;;;;;;;10.57;7.80;;;;;;;23.50;44.42;100430.91;4449014;32;33550;-63
2022/05/06 09:29:48;;;;;;;11.68;7.90;;;;;;;23.83;43.60;100431.00;4451659;32;34120;-62
2022/05/06 09:32:34;;;;;;;12.15;8.00;;;;;;;23.90;43.29;100431.00;4435134;32;35423;-63
2022/05/06 09:35:09;;;;;;;14.65;7.22;;;;;;;23.64;43.55;100438.91;4435091;32;33837;-62
2022/05/06 09:37:39;;;;;;;17.40;7.30;;;;;;;23.49;43.32;100433.59;4446827;32;34105;-63
2022/05/06 09:40:21;;;;;;;11.32;7.00;;;;;;;23.86;43.31;100425.72;4452957;32;32145;-62
2022/05/06 09:42:53;;;;;;;10.93;6.68;;;;;;;23.99;42.71;100432.78;4444708;32;33677;-65
2022/05/06 09:45:38;;;;;;;13.38;6.65;;;;;;;24.41;41.42;100425.66;4445108;32;34602;-64
2022/05/06 09:48:09;;;;;;;9.80;6.30;;;;;;;24.40;42.05;100428.34;4436152;32;31944;-62
2022/05/06 09:50:39;;;;;;;8.65;6.12;;;;;;;24.50;41.60;100423.00;4450625;32;33215;-63
2022/05/06 09:53:17;;;;;;;15.05;6.55;;;;;;;24.22;41.79;100424.84;4454078;32;33954;-65
2022/05/06 09:55:47;;;;;;;13.88;6.80;;;;;;;24.68;40.36;100426.53;4450723;32;33897;-63
2022/05/06 09:58:16;;;;;;;10.32;6.37;;;;;;;24.51;41.56;100422.16;4444622;32;33750;-63
2022/05/06 10:00:44;;;;;;;14.65;7.03;;;;;;;24.49;41.70;100423.91;4449975;32;33440;-64
2022/05/06 10:03:12;;;;;;;12.43;6.40;;;;;;;24.81;40.60;100419.44;4453545;32;33561;-63
2022/05/06 10:05:40;;;;;;;10.98;6.43;;;;;;;25.14;40.21;100423.69;4435776;32;34133;-63
2022/05/06 10:08:19;;;;;;;12.20;6.00;;;;;;;25.10;40.47;100422.81;4449658;32;33731;-62
2022/05/06 10:11:00;;;;;;;10.43;6.10;;;;;;;24.90;39.92;100414.97;4452257;32;31781;-63
2022/05/06 10:13:29;;;;;;;9.60;6.03;;;;;;;25.18;39.76;100409.53;4431118;32;33887;-65
2022/05/06 10:15:57;;;;;;;9.10;5.40;;;;;;;25.57;38.35;100412.84;4434181;32;33969;-65
2022/05/06 10:18:43;;;;;;;8.88;5.50;;;;;;;25.78;38.09;100409.16;4451100;32;34561;-66
2022/05/06 10:21:12;;;;;;;13.60;4.53;;;;;;;25.79;37.83;100404.75;4430955;32;33252;-65
2022/05/06 10:23:53;;;;;;;7.75;4.18;;;;;;;25.71;37.17;100402.16;4455819;32;33996;-64
2022/05/06 10:26:33;;;;;;;7.62;4.07;;;;;;;26.07;34.41;100403.63;4449038;32;33677;-64
2022/05/06 10:34:57;;;;;;;7.28;4.20;;;;;;;26.25;36.64;100402.59;4439900;32;33878;-64
2022/05/06 10:37:55;;;;;;;9.13;4.87;;;;;;;26.40;34.89;100400.66;4447986;32;33907;-64
2022/05/06 10:40:22;;;;;;;7.12;3.90;;;;;;;25.96;34.74;100389.59;4449271;32;33863;-64
2022/05/06 10:42:51;;;;;;;6.20;4.10;;;;;;;26.26;34.60;100395.50;4439486;32;33724;-63
2022/05/06 10:45:32;;;;;;;8.82;4.10;;;;;;;26.15;35.42;100389.41;4443703;32;35220;-63
2022/05/06 10:48:00;;;;;;;8.52;4.65;;;;;;;26.29;35.34;100382.19;4445914;32;34636;-64
2022/05/06 10:50:38;;;;;;;6.85;4.40;;;;;;;26.45;35.17;100389.09;4450348;32;34668;-64
2022/05/06 10:53:06;;;;;;;6.57;4.30;;;;;;;26.54;34.40;100387.22;4452615;32;33347;-65
2022/05/06 10:55:34;;;;;;;8.48;3.75;;;;;;;26.47;34.22;100381.09;4450385;32;34134;-65
2022/05/06 10:58:04;;;;;;;9.25;4.22;;;;;;;26.35;35.13;100381.22;4449226;32;33985;-64
2022/05/06 11:00:37;;;;;;;9.30;4.20;;;;;;;26.13;34.67;100381.44;4424770;32;33129;-65
2022/05/06 11:03:04;;;;;;;8.50;4.12;;;;;;;25.92;35.08;100377.22;4435200;32;33093;-64
2022/05/06 11:05:32;;;;;;;7.62;4.07;;;;;;;26.57;34.63;100377.44;4451445;32;33908;-65
2022/05/06 11:08:01;;;;;;;10.48;4.22;;;;;;;25.79;35.40;100375.56;4453497;32;34775;-65
2022/05/06 11:10:30;;;;;;;9.63;3.80;;;;;;;26.65;33.68;100377.38;4425905;32;33607;-65
2022/05/06 11:13:18;;;;;;;10.00;3.65;;;;;;;26.40;34.31;100374.97;4455166;32;34337;-65
2022/05/06 11:15:46;;;;;;;7.75;4.00;;;;;;;26.65;32.97;100370.28;4449756;32;34677;-66
2022/05/06 11:18:14;;;;;;;6.12;4.45;;;;;;;26.67;33.47;100378.25;4441958;32;32435;-67
2022/05/06 11:20:42;;;;;;;7.57;3.97;;;;;;;26.67;34.21;100372.94;4438075;32;34737;-65
2022/05/06 11:23:16;;;;;;;9.85;4.15;;;;;;;26.55;33.61;100373.06;4440459;32;33557;-65
2022/05/06 11:25:47;;;;;;;;;;;;;;;26.62;34.27;100377.44;4457066;32;34058;-64
2022/05/06 11:28:20;;;;;;;6.53;4.28;;;;;;;26.72;34.33;100376.41;4457472;32;34957;-65
2022/05/06 11:30:49;;;;;;;5.43;4.43;;;;;;;26.71;33.98;100369.31;4442707;32;34490;-64
2022/05/06 11:33:25;;;;;;;9.02;4.68;;;;;;;26.85;33.29;100354.09;4422882;32;33313;-66
2022/05/06 11:36:06;;;;;;;6.57;4.25;;;;;;;26.59;33.80;100361.53;4456875;32;33953;-65
2022/05/06 11:38:46;;;;;;;10.25;4.75;;;;;;;26.42;34.44;100361.69;4451485;32;33771;-65
2022/05/06 11:41:16;;;;;;;6.03;3.90;;;;;;;26.74;33.92;100353.34;4460399;32;33630;-64
2022/05/06 11:43:45;;;;;;;5.60;3.70;;;;;;;26.83;34.69;100353.25;4453971;32;33334;-64
2022/05/06 11:49:29;;;;;;;7.75;3.87;;;;;;;26.66;33.08;100349.94;4385791;32;32848;-64
2022/05/06 11:51:56;;;;;;;8.57;3.62;;;;;;;26.75;33.52;100348.91;4442807;32;33752;-64
2022/05/06 11:54:26;;;;;;;5.20;3.42;;;;;;;26.77;33.61;100348.03;4454357;32;34106;-64
2022/05/06 11:56:53;;;;;;;7.30;3.37;;;;;;;26.12;32.98;100352.28;4438243;32;33244;-64
2022/05/06 11:59:21;;;;;;;6.80;3.50;;;;;;;25.51;33.51;100343.94;4440356;32;33700;-65
2022/05/06 12:01:50;;;;;;;9.18;3.58;;;;;;;26.01;34.16;100345.28;4458095;32;33927;-64
2022/05/06 12:04:19;;;;;;;8.00;3.80;;;;;;;26.57;33.46;100355.31;4455616;32;33971;-64
2022/05/06 12:06:50;;;;;;;6.65;3.50;;;;;;;26.72;33.70;100343.66;4443119;32;33666;-66
2022/05/06 12:09:24;;;;;;;7.18;3.90;;;;;;;26.84;33.19;100343.47;4458380;32;34828;-65
2022/05/06 12:12:07;;;;;;;7.53;3.90;;;;;;;26.75;32.93;100339.16;4440296;32;32267;-68
2022/05/06 12:14:37;;;;;;;6.93;2.92;;;;;;;27.10;31.91;100343.13;4445875;32;33682;-67
2022/05/06 12:17:10;;;;;;;5.15;3.10;;;;;;;26.43;32.62;100343.06;4460628;32;33788;-66
2022/05/06 12:19:43;;;;;;;8.77;3.25;;;;;;;26.33;30.24;100346.75;4446018;32;34642;-67
2022/05/06 12:22:12;;;;;;;7.18;3.53;;;;;;;26.83;31.42;100331.97;4456358;32;33779;-67